createdAt,value
2022-12-15T00:02:02.805Z,17.77
2022-12-15T00:05:25.465Z,15.80
2022-12-15T00:08:46.331Z,15.98
2022-12-15T00:12:07.085Z,13.70
2022-12-15T00:15:28.499Z,16.58
2022-12-15T00:18:49.430Z,13.43
2022-12-15T00:22:11.671Z,15.40
2022-12-15T00:25:32.532Z,14.35
2022-12-15T00:28:53.397Z,15.30
2022-12-15T00:32:14.066Z,16.63
2022-12-15T00:35:35.121Z,16.67
2022-12-15T00:38:45.523Z,17.58
2022-12-15T00:41:48.676Z,14.00
2022-12-15T00:44:52.037Z,14.60
2022-12-15T00:47:53.985Z,15.18
2022-12-15T00:50:56.993Z,15.65
2022-12-15T00:54:18.964Z,14.65
2022-12-15T00:57:39.979Z,13.90
2022-12-15T01:01:00.572Z,15.18
2022-12-15T01:04:21.390Z,14.52
2022-12-15T01:07:42.093Z,14.77
2022-12-15T01:11:04.215Z,13.73
2022-12-15T01:14:24.903Z,14.73
2022-12-15T01:17:45.677Z,14.15
2022-12-15T01:20:57.036Z,13.93
2022-12-15T01:24:00.103Z,15.48
2022-12-15T01:27:04.615Z,15.00
2022-12-15T01:30:10.880Z,15.80
2022-12-15T01:33:14.290Z,18.70
2022-12-15T01:36:17.225Z,19.75
2022-12-15T01:39:20.276Z,16.23
2022-12-15T01:42:23.678Z,17.52
2022-12-15T01:45:51.070Z,19.30
2022-12-15T01:49:02.399Z,16.45
2022-12-15T01:52:09.529Z,17.10
2022-12-15T01:55:12.620Z,16.17
2022-12-15T01:58:20.090Z,18.30
2022-12-15T02:01:23.413Z,18.58
2022-12-15T02:04:27.193Z,17.13
2022-12-15T02:07:30.439Z,18.75
2022-12-15T02:10:52.625Z,17.80
2022-12-15T02:14:02.872Z,19.30
2022-12-15T02:17:20.098Z,17.02
2022-12-15T02:20:48.145Z,17.30
2022-12-15T02:24:41.331Z,17.80
2022-12-15T02:27:54.976Z,19.15
2022-12-15T02:31:23.773Z,21.33
2022-12-15T02:34:35.724Z,17.90
2022-12-15T02:37:41.129Z,17.20
2022-12-15T02:40:44.158Z,19.55
2022-12-15T02:43:47.243Z,18.30
2022-12-15T02:47:19.786Z,19.55
2022-12-15T02:50:48.382Z,20.20
2022-12-15T02:54:18.057Z,21.88
2022-12-15T02:57:32.825Z,20.73
2022-12-15T03:00:43.936Z,19.95
2022-12-15T03:03:51.615Z,22.35
2022-12-15T03:07:01.059Z,23.48
2022-12-15T03:10:08.203Z,22.67
2022-12-15T03:13:11.150Z,21.70
2022-12-15T03:16:14.138Z,22.40
2022-12-15T03:19:18.747Z,23.90
2022-12-15T03:22:22.094Z,22.27
2022-12-15T03:25:25.281Z,19.75
2022-12-15T03:28:28.668Z,17.50
2022-12-15T03:31:31.731Z,19.23
2022-12-15T03:34:36.194Z,22.90
2022-12-15T03:37:39.227Z,20.60
2022-12-15T03:40:42.172Z,20.20
2022-12-15T03:43:46.446Z,18.70
2022-12-15T03:46:53.007Z,21.95
2022-12-15T03:49:57.806Z,19.47
2022-12-15T03:53:03.114Z,21.67
2022-12-15T03:56:07.101Z,21.67
2022-12-15T03:59:10.126Z,20.80
2022-12-15T04:02:13.536Z,19.33
2022-12-15T04:05:23.132Z,24.90
2022-12-15T04:08:26.609Z,22.13
2022-12-15T04:11:29.766Z,24.00
2022-12-15T04:14:33.130Z,23.43
2022-12-15T04:17:36.318Z,22.08
2022-12-15T04:20:41.767Z,25.33
2022-12-15T04:24:02.609Z,26.73
2022-12-15T04:27:23.357Z,25.90
2022-12-15T04:30:43.995Z,20.90
2022-12-15T04:34:10.116Z,21.30
2022-12-15T04:37:33.050Z,20.02
2022-12-15T04:40:54.350Z,23.90
2022-12-15T04:44:15.329Z,21.33
2022-12-15T04:47:36.657Z,27.63
2022-12-15T04:50:58.261Z,23.90
2022-12-15T04:54:20.514Z,21.55
2022-12-15T04:57:41.347Z,25.77
2022-12-15T05:01:02.234Z,22.10
2022-12-15T05:04:23.474Z,19.30
2022-12-15T05:07:44.719Z,23.08
2022-12-15T05:11:06.534Z,22.83
2022-12-15T05:14:27.331Z,24.13
2022-12-15T05:17:48.257Z,26.90
2022-12-15T05:21:09.176Z,23.90
2022-12-15T05:24:29.775Z,29.83
2022-12-15T05:27:52.264Z,20.08
2022-12-15T05:31:12.881Z,24.85
2022-12-15T05:34:16.249Z,21.30
2022-12-15T05:37:19.232Z,19.65
2022-12-15T05:40:22.324Z,22.02
2022-12-15T05:43:27.054Z,18.60
2022-12-15T05:46:30.110Z,23.10
2022-12-15T05:49:34.086Z,19.90
2022-12-15T05:52:37.229Z,24.98
2022-12-15T05:55:40.227Z,22.53
2022-12-15T05:58:45.775Z,22.30
2022-12-15T06:01:49.064Z,18.70
2022-12-15T06:04:52.226Z,16.50
2022-12-15T06:07:56.162Z,19.23
2022-12-15T06:10:59.446Z,21.42
2022-12-15T06:14:03.944Z,18.47
2022-12-15T06:17:07.082Z,21.23
2022-12-15T06:20:11.434Z,19.03
2022-12-15T06:23:14.385Z,17.63
2022-12-15T06:26:21.462Z,19.20
2022-12-15T06:29:25.982Z,20.70
2022-12-15T06:32:29.071Z,14.32
2022-12-15T06:35:32.834Z,12.02
2022-12-15T06:38:36.823Z,11.07
2022-12-15T06:41:41.260Z,10.32
2022-12-15T06:44:45.649Z,9.90
2022-12-15T06:47:49.895Z,9.32
2022-12-15T06:50:53.570Z,9.20
2022-12-15T06:53:56.906Z,11.48
2022-12-15T06:56:59.947Z,6.83
2022-12-15T07:00:06.456Z,7.97
2022-12-15T07:03:16.301Z,8.18
2022-12-15T07:06:20.190Z,4.82
2022-12-15T07:09:26.046Z,6.60
2022-12-15T07:16:00.657Z,4.80
2022-12-15T07:19:04.032Z,3.40
2022-12-15T07:22:07.231Z,2.40
2022-12-15T07:25:11.022Z,6.60
2022-12-15T07:28:14.064Z,2.03
2022-12-15T07:31:21.229Z,4.78
2022-12-15T07:34:26.724Z,5.82
2022-12-15T07:37:35.685Z,3.33
2022-12-15T07:40:41.791Z,2.83
2022-12-15T07:43:45.939Z,7.95
2022-12-15T07:46:51.287Z,5.65
2022-12-15T07:49:54.591Z,3.88
2022-12-15T07:52:57.838Z,3.85
2022-12-15T07:56:08.101Z,4.78
2022-12-15T07:59:12.314Z,6.60
2022-12-15T08:02:17.757Z,6.43
2022-12-15T08:05:21.275Z,4.93
2022-12-15T08:08:25.208Z,6.25
2022-12-15T08:11:28.665Z,8.75
2022-12-15T08:14:32.290Z,8.75
2022-12-15T08:17:37.549Z,8.20
2022-12-15T08:20:41.095Z,8.45
2022-12-15T08:23:45.886Z,5.85
2022-12-15T08:26:50.766Z,5.53
2022-12-15T08:29:54.751Z,6.88
2022-12-15T08:32:59.471Z,7.40
2022-12-15T08:36:07.548Z,4.78
2022-12-15T08:39:12.177Z,3.90
2022-12-15T08:42:15.511Z,5.00
2022-12-15T08:45:19.089Z,5.93
2022-12-15T08:48:24.342Z,5.32
2022-12-15T08:51:31.878Z,6.47
2022-12-15T08:54:35.758Z,6.00
2022-12-15T08:57:40.522Z,3.72
2022-12-15T09:00:44.162Z,5.65
2022-12-15T09:03:51.593Z,7.10
2022-12-15T09:06:55.297Z,4.25
2022-12-15T09:09:59.891Z,9.35
2022-12-15T09:13:03.507Z,4.68
2022-12-15T09:16:17.149Z,5.25
2022-12-15T09:19:25.492Z,6.95
2022-12-15T09:22:29.024Z,6.07
2022-12-15T09:25:32.569Z,6.97
2022-12-15T09:28:37.285Z,4.38
2022-12-15T09:31:44.633Z,3.40
2022-12-15T09:34:52.528Z,5.53
2022-12-15T09:37:57.901Z,5.07
2022-12-15T09:41:10.629Z,4.70
2022-12-15T09:44:18.966Z,5.63
2022-12-15T09:47:35.192Z,5.50
2022-12-15T09:50:43.972Z,8.75
2022-12-15T09:57:20.705Z,4.45
2022-12-15T10:00:29.404Z,6.47
2022-12-15T10:03:55.029Z,6.85
2022-12-15T10:07:09.516Z,5.20
2022-12-15T10:10:25.599Z,8.48
2022-12-15T10:13:41.855Z,7.53
2022-12-15T10:16:56.448Z,6.72
2022-12-15T10:20:14.411Z,6.55
2022-12-15T10:23:32.460Z,7.93
2022-12-15T10:26:37.797Z,5.15
2022-12-15T10:29:50.771Z,3.58
2022-12-15T10:33:03.787Z,4.00
2022-12-15T10:36:12.759Z,7.88
2022-12-15T10:39:17.794Z,3.83
2022-12-15T10:42:24.437Z,5.15
2022-12-15T10:45:36.638Z,5.07
2022-12-15T10:48:40.146Z,6.63
2022-12-15T10:51:47.348Z,3.20
2022-12-15T10:54:54.750Z,3.45
2022-12-15T10:58:02.222Z,4.75
2022-12-15T11:01:15.631Z,3.25
2022-12-15T11:04:28.309Z,2.97
2022-12-15T11:07:39.971Z,3.90
2022-12-15T11:11:12.901Z,4.13
2022-12-15T11:14:20.931Z,2.47
2022-12-15T11:17:25.199Z,4.45
2022-12-15T11:20:34.540Z,4.30
2022-12-15T11:23:57.634Z,2.95
2022-12-15T11:27:14.006Z,4.25
2022-12-15T11:30:22.169Z,3.53
2022-12-15T11:33:25.244Z,4.03
2022-12-15T11:37:00.775Z,4.03
2022-12-15T11:40:20.789Z,3.55
2022-12-15T11:44:13.490Z,1.70
2022-12-15T11:47:27.805Z,3.40
2022-12-15T11:54:14.917Z,2.53
2022-12-15T11:57:52.921Z,4.90
2022-12-15T12:01:09.716Z,3.72
2022-12-15T12:04:23.268Z,2.08
2022-12-15T12:07:42.131Z,4.70
2022-12-15T12:11:00.384Z,1.27
2022-12-15T12:14:25.812Z,3.40
2022-12-15T12:17:43.325Z,3.83
2022-12-15T12:20:52.885Z,1.88
2022-12-15T12:24:02.277Z,4.50
2022-12-15T12:27:13.771Z,3.00
2022-12-15T12:30:21.909Z,6.47
2022-12-15T12:33:37.661Z,2.97
2022-12-15T12:36:43.021Z,2.00
2022-12-15T12:39:46.951Z,2.85
2022-12-15T12:42:55.603Z,5.07
2022-12-15T12:46:04.891Z,2.20
2022-12-15T12:49:26.239Z,3.53
2022-12-15T12:52:34.194Z,3.20
2022-12-15T12:55:42.018Z,3.20
2022-12-15T12:58:45.345Z,3.70
2022-12-15T13:01:51.876Z,5.75
2022-12-15T13:05:27.159Z,5.90
2022-12-15T13:08:51.905Z,2.90
2022-12-15T13:12:14.857Z,2.53
2022-12-15T13:15:39.109Z,6.28
2022-12-15T13:19:03.384Z,2.83
2022-12-15T13:22:33.898Z,3.85
2022-12-15T13:25:48.532Z,4.20
2022-12-15T13:28:58.416Z,2.72
2022-12-15T13:32:01.942Z,5.78
2022-12-15T13:35:24.411Z,4.55
2022-12-15T13:38:54.078Z,1.98
2022-12-15T13:42:38.881Z,4.43
2022-12-15T13:46:01.876Z,2.72
2022-12-15T13:49:14.735Z,5.38
2022-12-15T13:53:08.472Z,3.85
2022-12-15T13:56:07.659Z,3.03
2022-12-15T13:59:26.822Z,4.13
2022-12-15T14:02:31.730Z,4.65
2022-12-15T14:05:35.029Z,4.05
2022-12-15T14:08:38.811Z,2.53
2022-12-15T14:11:53.351Z,2.30
2022-12-15T14:14:57.308Z,4.88
2022-12-15T14:18:03.030Z,3.92
2022-12-15T14:21:19.029Z,3.67
2022-12-15T14:24:39.674Z,4.60
2022-12-15T14:27:44.769Z,4.15
2022-12-15T14:30:54.049Z,3.78
2022-12-15T14:34:04.508Z,4.67
2022-12-15T14:37:14.116Z,5.63
2022-12-15T14:40:24.991Z,8.77
2022-12-15T14:46:41.640Z,7.50
2022-12-15T14:52:56.530Z,7.10
2022-12-15T14:56:13.761Z,10.30
2022-12-15T14:59:22.615Z,8.02
2022-12-15T15:02:29.608Z,5.65
2022-12-15T15:05:34.446Z,5.25
2022-12-15T15:08:46.706Z,6.32
2022-12-15T15:11:53.406Z,7.10
2022-12-15T15:15:05.873Z,8.80
2022-12-15T15:18:26.121Z,8.40
2022-12-15T15:21:37.203Z,15.18
2022-12-15T15:24:40.516Z,13.18
2022-12-15T15:27:44.537Z,11.07
2022-12-15T15:33:56.839Z,26.67
2022-12-15T15:37:02.977Z,36.45
2022-12-15T15:40:15.587Z,28.80
2022-12-15T15:43:19.467Z,23.33
2022-12-15T15:49:39.352Z,11.63
2022-12-15T15:52:45.628Z,9.07
2022-12-15T15:55:54.810Z,8.30
2022-12-15T15:59:00.102Z,10.70
2022-12-15T16:02:05.355Z,9.40
2022-12-15T16:05:11.746Z,13.65
2022-12-15T16:08:20.334Z,15.93
2022-12-15T16:11:32.289Z,11.27
2022-12-15T16:14:35.327Z,9.15
2022-12-15T16:17:39.914Z,11.97
2022-12-15T16:20:47.298Z,12.52
2022-12-15T16:23:50.702Z,17.05
2022-12-15T16:26:53.832Z,7.30
2022-12-15T16:29:58.007Z,9.90
2022-12-15T16:33:02.336Z,10.98
2022-12-15T16:36:12.928Z,9.55
2022-12-15T16:39:31.443Z,9.45
2022-12-15T16:42:34.602Z,11.77
2022-12-15T16:45:37.558Z,7.65
2022-12-15T16:48:42.570Z,9.10
2022-12-15T16:51:48.911Z,9.82
2022-12-15T16:54:52.175Z,7.13
2022-12-15T16:57:59.621Z,9.40
2022-12-15T17:01:03.833Z,13.02
2022-12-15T17:04:08.334Z,7.25
2022-12-15T17:07:20.126Z,10.52
2022-12-15T17:10:26.667Z,10.02
2022-12-15T17:13:40.638Z,7.30
2022-12-15T17:16:46.978Z,8.18
2022-12-15T17:20:27.490Z,7.43
2022-12-15T17:23:19.072Z,8.85
2022-12-15T17:26:29.653Z,6.95
2022-12-15T17:29:34.690Z,6.38
2022-12-15T17:32:37.681Z,8.30
2022-12-15T17:35:42.221Z,9.93
2022-12-15T17:38:46.085Z,11.57
2022-12-15T17:48:07.405Z,9.95
2022-12-15T17:51:16.452Z,11.60
2022-12-15T17:54:21.150Z,13.52
2022-12-15T17:57:25.406Z,19.20
2022-12-15T18:00:30.743Z,15.68
2022-12-15T18:03:34.291Z,16.70
2022-12-15T18:06:41.112Z,15.85
2022-12-15T18:09:44.286Z,16.17
2022-12-15T18:12:47.410Z,12.50
2022-12-15T18:15:51.655Z,14.70
2022-12-15T18:18:54.667Z,10.68
2022-12-15T18:21:59.466Z,10.03
2022-12-15T18:25:02.540Z,16.60
2022-12-15T18:28:20.830Z,15.52
2022-12-15T18:31:27.525Z,11.65
2022-12-15T18:34:30.685Z,12.80
2022-12-15T18:37:35.892Z,15.18
2022-12-15T18:40:39.360Z,14.75
2022-12-15T18:43:48.115Z,12.07
2022-12-15T18:46:51.425Z,15.95
2022-12-15T18:49:55.578Z,13.20
2022-12-15T18:53:04.176Z,13.05
2022-12-15T18:56:08.973Z,15.85
2022-12-15T18:59:15.713Z,12.18
2022-12-15T19:02:18.967Z,12.65
2022-12-15T19:05:32.854Z,12.88
2022-12-15T19:08:38.749Z,11.90
2022-12-15T19:12:02.369Z,11.38
2022-12-15T19:15:16.988Z,13.25
2022-12-15T19:18:41.621Z,13.70
2022-12-15T19:22:02.535Z,15.75
2022-12-15T19:25:08.307Z,12.48
2022-12-15T19:28:17.321Z,12.02
2022-12-15T19:31:20.379Z,14.10
2022-12-15T19:34:23.622Z,13.20
2022-12-15T19:37:31.913Z,16.73
2022-12-15T19:40:38.477Z,20.90
2022-12-15T19:43:41.451Z,33.88
2022-12-15T19:46:45.706Z,57.37
2022-12-15T19:49:49.613Z,40.97
2022-12-15T19:52:59.663Z,38.83
2022-12-15T19:56:05.255Z,38.42
2022-12-15T19:59:18.682Z,28.20
2022-12-15T20:02:22.786Z,26.92
2022-12-15T20:05:26.657Z,18.00
2022-12-15T20:08:36.500Z,15.93
2022-12-15T20:11:41.401Z,16.88
2022-12-15T20:14:44.399Z,12.75
2022-12-15T20:17:48.492Z,11.70
2022-12-15T20:20:52.255Z,11.55
2022-12-15T20:27:05.020Z,11.18
2022-12-15T20:30:20.027Z,11.63
2022-12-15T20:33:23.479Z,18.33
2022-12-15T20:36:30.291Z,18.73
2022-12-15T20:39:33.653Z,21.95
2022-12-15T20:42:38.509Z,22.45
2022-12-15T20:45:41.687Z,34.00
2022-12-15T20:48:46.491Z,31.55
2022-12-15T20:51:50.815Z,35.35
2022-12-15T20:54:55.677Z,45.67
2022-12-15T20:58:00.476Z,54.00
2022-12-15T21:01:03.520Z,40.40
2022-12-15T21:04:25.194Z,52.22
2022-12-15T21:07:28.284Z,46.38
2022-12-15T21:10:31.497Z,46.00
2022-12-15T21:13:37.187Z,46.28
2022-12-15T21:16:40.317Z,45.00
2022-12-15T21:19:43.520Z,48.22
2022-12-15T21:22:46.984Z,47.40
2022-12-15T21:25:50.795Z,42.92
2022-12-15T21:28:59.461Z,41.38
2022-12-15T21:32:02.514Z,37.60
2022-12-15T21:35:07.378Z,35.47
2022-12-15T21:38:29.768Z,27.58
2022-12-15T21:41:33.508Z,26.27
2022-12-15T21:44:37.806Z,24.92
2022-12-15T21:47:54.975Z,20.80
2022-12-15T21:50:58.148Z,19.63
2022-12-15T21:54:02.814Z,13.50
2022-12-15T21:57:12.116Z,21.42
2022-12-15T22:00:19.367Z,16.40
2022-12-15T22:03:22.749Z,21.10
2022-12-15T22:09:30.764Z,20.38
2022-12-15T22:12:34.102Z,22.23
2022-12-15T22:15:39.761Z,19.95
2022-12-15T22:18:43.250Z,20.48
2022-12-15T22:21:46.267Z,23.20
2022-12-15T22:24:49.342Z,27.03
2022-12-15T22:27:54.696Z,17.83
2022-12-15T22:31:02.475Z,20.73
2022-12-15T22:34:14.612Z,25.20
2022-12-15T22:37:17.696Z,22.77
2022-12-15T22:40:23.052Z,25.70
2022-12-15T22:43:35.866Z,20.83
2022-12-15T22:46:40.359Z,19.38
2022-12-15T22:49:43.914Z,26.23
2022-12-15T22:52:47.193Z,23.08
2022-12-15T22:55:51.178Z,17.95
2022-12-15T22:59:01.769Z,17.05
2022-12-15T23:02:06.537Z,19.80
2022-12-15T23:05:12.925Z,14.15
2022-12-15T23:08:16.536Z,16.77
2022-12-15T23:11:38.852Z,14.27
2022-12-15T23:14:59.747Z,15.85
2022-12-15T23:18:04.403Z,12.05
2022-12-15T23:21:09.422Z,13.50
2022-12-15T23:24:12.476Z,15.88
2022-12-15T23:27:15.477Z,13.13
2022-12-15T23:30:19.043Z,20.00
2022-12-15T23:33:24.838Z,17.40
2022-12-15T23:36:28.510Z,17.98
2022-12-15T23:42:35.471Z,12.45
2022-12-15T23:45:38.576Z,16.00
2022-12-15T23:48:45.379Z,10.43
2022-12-15T23:51:48.943Z,11.75
2022-12-15T23:54:51.969Z,10.93
2022-12-15T23:57:56.644Z,8.45
